Varmdo — SMXZ — position and weather

sailwx.info

Track history (hours):
 
Tides and Currents Weather Stations Pressure Air Temp Water Temp Dewpoint Dewpoint Depression Visibility Wind Speed Wind Dir Waves Ship Positions

Varmdo

Last reported at 2015-Sep-05 03:32 UTC. Time now 2015-Sep-05 03:48 UTC.
Position N 59°20' E 018°05'.

Length 38 m; draft 2.5 m.

Type: Passenger vessel. MMSI: 265520390.

Date/timePositionNaut miles runAvg speedWind from/ knotsBaromVisibWave heightAir tempDewpointWater temp
2015-Sep-05 03:32N 59°20' E 018°05'0 0.0
2015-Sep-05 02:32N 59°20' E 018°05'0 0.0
2015-Sep-05 01:32N 59°20' E 018°05'0 0.0
2015-Sep-05 00:32N 59°20' E 018°05'0 0.0
2015-Sep-04 23:29N 59°20' E 018°05'0 0.0
2015-Sep-04 22:32N 59°20' E 018°05'0 0.0
2015-Sep-04 21:32N 59°20' E 018°05'5 5.5
2015-Sep-04 20:34N 59°21' E 018°15'3 0.8
2015-Sep-04 16:26N 59°23' E 018°20'9 9.5
2015-Sep-04 15:32N 59°20' E 018°05'0 0.3
2015-Sep-04 14:32N 59°20' E 018°05'0 0.0
2015-Sep-04 13:32N 59°20' E 018°05'0 0.0
2015-Sep-04 12:32N 59°20' E 018°05'0 0.0
2015-Sep-04 11:32N 59°20' E 018°05'0 0.0
2015-Sep-04 10:32N 59°20' E 018°05'0 0.0
2015-Sep-04 09:32N 59°20' E 018°05'0 0.0
2015-Sep-04 08:32N 59°20' E 018°05'4 0.1
2015-Sep-02 13:28N 59°20' E 018°12'4 4.5
2015-Sep-02 12:33N 59°20' E 018°05'0 0.0
2015-Sep-02 11:33N 59°20' E 018°05'0 0.0
2015-Sep-02 10:33N 59°20' E 018°05'0 0.0
2015-Sep-02 09:33N 59°20' E 018°05'0 0.0
2015-Sep-02 08:33N 59°20' E 018°05'0 0.0
2015-Sep-02 07:33N 59°20' E 018°05'0 0.0
2015-Sep-02 06:33N 59°20' E 018°05'3 2.8
2015-Sep-02 05:33N 59°19' E 018°10'6 0.4
2015-Sep-01 16:28N 59°23' E 018°19'8 8.9
2015-Sep-01 15:33N 59°20' E 018°05'0 0.2
2015-Sep-01 14:33N 59°20' E 018°04'0 0.0
2015-Sep-01 13:33N 59°20' E 018°04'0 0.0
2015-Sep-01 12:30N 59°20' E 018°04'0 0.0
2015-Sep-01 11:33N 59°20' E 018°04'0 0.0
2015-Sep-01 10:33N 59°20' E 018°04'0 0.0
2015-Sep-01 09:33N 59°20' E 018°04'0 0.0
2015-Sep-01 08:33N 59°20' E 018°04'0 0.0
2015-Sep-01 07:33N 59°20' E 018°04'0 0.0
2015-Sep-01 06:33N 59°20' E 018°04'0 0.0
2015-Sep-01 05:33N 59°20' E 018°04'0 0.0
2015-Sep-01 04:30N 59°20' E 018°04'0 0.0
2015-Sep-01 03:33N 59°20' E 018°04'0 0.0
2015-Sep-01 02:33N 59°20' E 018°04'0 0.0
2015-Sep-01 01:33N 59°20' E 018°04'0 0.0
2015-Sep-01 00:33N 59°20' E 018°04'0 0.0
2015-Aug-31 23:33N 59°20' E 018°04'0 0.0
2015-Aug-31 22:33N 59°20' E 018°04'0 0.0
2015-Aug-31 21:33N 59°20' E 018°04'0 0.0
2015-Aug-31 20:33N 59°20' E 018°04'0 0.0
2015-Aug-31 19:33N 59°20' E 018°04'0 0.0
2015-Aug-31 18:33N 59°20' E 018°04'0 0.0
2015-Aug-31 17:33N 59°20' E 018°04'0 0.0
2015-Aug-31 16:33N 59°20' E 018°04'0 0.0
2015-Aug-31 15:33N 59°20' E 018°04'0 0.0
2015-Aug-31 14:33N 59°20' E 018°04'0 0.0
2015-Aug-31 13:33N 59°20' E 018°04'0 0.0
2015-Aug-31 12:33N 59°20' E 018°04'0 0.0
2015-Aug-31 11:33N 59°20' E 018°04'0 0.0
2015-Aug-31 10:33N 59°20' E 018°04'0 0.0
2015-Aug-31 09:33N 59°20' E 018°04'0 0.0
2015-Aug-31 08:33N 59°20' E 018°04'0 0.0
2015-Aug-31 07:33N 59°20' E 018°04'0 0.0
2015-Aug-31 06:33N 59°20' E 018°04'0 0.0
2015-Aug-31 05:33N 59°20' E 018°04'0 0.0
2015-Aug-31 04:33N 59°20' E 018°04'0 0.0
2015-Aug-31 03:33N 59°20' E 018°04'0 0.0
2015-Aug-31 02:33N 59°20' E 018°04'0 0.0
2015-Aug-31 01:33N 59°20' E 018°04'0 0.0
2015-Aug-31 00:33N 59°20' E 018°04'0 0.0
2015-Aug-30 23:33N 59°20' E 018°04'0 0.0
2015-Aug-30 22:33N 59°20' E 018°04'0 0.0
2015-Aug-30 21:33N 59°20' E 018°04'0 0.0
2015-Aug-30 20:33N 59°20' E 018°04'0 0.0
2015-Aug-30 19:33N 59°20' E 018°04'9 1.7
2015-Aug-30 14:24N 59°23' E 018°20'910.1
2015-Aug-30 13:33N 59°20' E 018°05'8 8.2
2015-Aug-30 12:34N 59°23' E 018°19'0 0.1
2015-Aug-30 07:19N 59°23' E 018°20'811.3
2015-Aug-30 06:34N 59°19' E 018°05'0 0.0
2015-Aug-29 16:29N 59°19' E 018°05'9 1.0
2015-Aug-29 07:25N 59°23' E 018°20'910.0
2015-Aug-29 06:34N 59°19' E 018°05'0 0.4
2015-Aug-29 05:28N 59°20' E 018°05'0 0.0
2015-Aug-29 04:31N 59°20' E 018°05'0 0.0
2015-Aug-29 03:16N 59°20' E 018°05'0 0.0
2015-Aug-29 02:25N 59°20' E 018°05'0 0.0
2015-Aug-29 01:28N 59°20' E 018°05'0 0.0
2015-Aug-28 22:31N 59°20' E 018°05'0 0.0
2015-Aug-28 21:31N 59°20' E 018°05'7 1.3
2015-Aug-28 16:20N 59°22' E 018°17'7 8.5
2015-Aug-28 15:33N 59°20' E 018°05'0 0.2
2015-Aug-28 14:27N 59°20' E 018°04'0 0.0
2015-Aug-28 13:24N 59°20' E 018°04'0 0.0
2015-Aug-28 12:33N 59°20' E 018°04'0 0.0
2015-Aug-28 11:33N 59°20' E 018°04'0 0.0
2015-Aug-28 10:33N 59°20' E 018°04'0 0.0
2015-Aug-28 09:33N 59°20' E 018°04'0 0.0
2015-Aug-28 08:33N 59°20' E 018°04'6 5.8
2015-Aug-28 07:33N 59°22' E 018°15'1 0.0
2015-Aug-26 13:33N 59°21' E 018°15'5 5.2
2015-Aug-26 12:32N 59°20' E 018°05'0 0.0
2015-Aug-26 11:32N 59°20' E 018°05'0 0.0
2015-Aug-26 10:32N 59°20' E 018°05'0 0.0
2015-Aug-26 09:32N 59°20' E 018°05'0 0.0
2015-Aug-26 08:29N 59°20' E 018°05'0 0.0
2015-Aug-26 07:32N 59°20' E 018°05'0 0.0
2015-Aug-26 06:32N 59°20' E 018°05'  
Track history (hours):
 
Tides and Currents Weather Stations Pressure Air Temp Water Temp Dewpoint Dewpoint Depression Visibility Wind Speed Wind Dir Waves Ship Positions

Varmdo

Last reported at 2015-Sep-05 03:32 UTC. Time now 2015-Sep-05 03:48 UTC.
Position N 59°20' E 018°05'.

Length 38 m; draft 2.5 m.

Type: Passenger vessel. MMSI: 265520390.

Date/timePositionNaut miles runAvg speedWind from/ knotsBaromVisibWave heightAir tempDewpointWater temp
2015-Sep-05 03:32N 59°20' E 018°05'0 0.0
2015-Sep-05 02:32N 59°20' E 018°05'0 0.0
2015-Sep-05 01:32N 59°20' E 018°05'0 0.0
2015-Sep-05 00:32N 59°20' E 018°05'0 0.0
2015-Sep-04 23:29N 59°20' E 018°05'0 0.0
2015-Sep-04 22:32N 59°20' E 018°05'0 0.0
2015-Sep-04 21:32N 59°20' E 018°05'5 5.5
2015-Sep-04 20:34N 59°21' E 018°15'3 0.8
2015-Sep-04 16:26N 59°23' E 018°20'9 9.5
2015-Sep-04 15:32N 59°20' E 018°05'0 0.3
2015-Sep-04 14:32N 59°20' E 018°05'0 0.0
2015-Sep-04 13:32N 59°20' E 018°05'0 0.0
2015-Sep-04 12:32N 59°20' E 018°05'0 0.0
2015-Sep-04 11:32N 59°20' E 018°05'0 0.0
2015-Sep-04 10:32N 59°20' E 018°05'0 0.0
2015-Sep-04 09:32N 59°20' E 018°05'0 0.0
2015-Sep-04 08:32N 59°20' E 018°05'4 0.1
2015-Sep-02 13:28N 59°20' E 018°12'4 4.5
2015-Sep-02 12:33N 59°20' E 018°05'0 0.0
2015-Sep-02 11:33N 59°20' E 018°05'0 0.0
2015-Sep-02 10:33N 59°20' E 018°05'0 0.0
2015-Sep-02 09:33N 59°20' E 018°05'0 0.0
2015-Sep-02 08:33N 59°20' E 018°05'0 0.0
2015-Sep-02 07:33N 59°20' E 018°05'0 0.0
2015-Sep-02 06:33N 59°20' E 018°05'3 2.8
2015-Sep-02 05:33N 59°19' E 018°10'6 0.4
2015-Sep-01 16:28N 59°23' E 018°19'8 8.9
2015-Sep-01 15:33N 59°20' E 018°05'0 0.2
2015-Sep-01 14:33N 59°20' E 018°04'0 0.0
2015-Sep-01 13:33N 59°20' E 018°04'0 0.0
2015-Sep-01 12:30N 59°20' E 018°04'0 0.0
2015-Sep-01 11:33N 59°20' E 018°04'0 0.0
2015-Sep-01 10:33N 59°20' E 018°04'0 0.0
2015-Sep-01 09:33N 59°20' E 018°04'0 0.0
2015-Sep-01 08:33N 59°20' E 018°04'0 0.0
2015-Sep-01 07:33N 59°20' E 018°04'0 0.0
2015-Sep-01 06:33N 59°20' E 018°04'0 0.0
2015-Sep-01 05:33N 59°20' E 018°04'0 0.0
2015-Sep-01 04:30N 59°20' E 018°04'0 0.0
2015-Sep-01 03:33N 59°20' E 018°04'0 0.0
2015-Sep-01 02:33N 59°20' E 018°04'0 0.0
2015-Sep-01 01:33N 59°20' E 018°04'0 0.0
2015-Sep-01 00:33N 59°20' E 018°04'0 0.0
2015-Aug-31 23:33N 59°20' E 018°04'0 0.0
2015-Aug-31 22:33N 59°20' E 018°04'0 0.0
2015-Aug-31 21:33N 59°20' E 018°04'0 0.0
2015-Aug-31 20:33N 59°20' E 018°04'0 0.0
2015-Aug-31 19:33N 59°20' E 018°04'0 0.0
2015-Aug-31 18:33N 59°20' E 018°04'0 0.0
2015-Aug-31 17:33N 59°20' E 018°04'0 0.0
2015-Aug-31 16:33N 59°20' E 018°04'0 0.0
2015-Aug-31 15:33N 59°20' E 018°04'0 0.0
2015-Aug-31 14:33N 59°20' E 018°04'0 0.0
2015-Aug-31 13:33N 59°20' E 018°04'0 0.0
2015-Aug-31 12:33N 59°20' E 018°04'0 0.0
2015-Aug-31 11:33N 59°20' E 018°04'0 0.0
2015-Aug-31 10:33N 59°20' E 018°04'0 0.0
2015-Aug-31 09:33N 59°20' E 018°04'0 0.0
2015-Aug-31 08:33N 59°20' E 018°04'0 0.0
2015-Aug-31 07:33N 59°20' E 018°04'0 0.0
2015-Aug-31 06:33N 59°20' E 018°04'0 0.0
2015-Aug-31 05:33N 59°20' E 018°04'0 0.0
2015-Aug-31 04:33N 59°20' E 018°04'0 0.0
2015-Aug-31 03:33N 59°20' E 018°04'0 0.0
2015-Aug-31 02:33N 59°20' E 018°04'0 0.0
2015-Aug-31 01:33N 59°20' E 018°04'0 0.0
2015-Aug-31 00:33N 59°20' E 018°04'0 0.0
2015-Aug-30 23:33N 59°20' E 018°04'0 0.0
2015-Aug-30 22:33N 59°20' E 018°04'0 0.0
2015-Aug-30 21:33N 59°20' E 018°04'0 0.0
2015-Aug-30 20:33N 59°20' E 018°04'0 0.0
2015-Aug-30 19:33N 59°20' E 018°04'9 1.7
2015-Aug-30 14:24N 59°23' E 018°20'910.1
2015-Aug-30 13:33N 59°20' E 018°05'8 8.2
2015-Aug-30 12:34N 59°23' E 018°19'0 0.1
2015-Aug-30 07:19N 59°23' E 018°20'811.3
2015-Aug-30 06:34N 59°19' E 018°05'0 0.0
2015-Aug-29 16:29N 59°19' E 018°05'9 1.0
2015-Aug-29 07:25N 59°23' E 018°20'910.0
2015-Aug-29 06:34N 59°19' E 018°05'0 0.4
2015-Aug-29 05:28N 59°20' E 018°05'0 0.0
2015-Aug-29 04:31N 59°20' E 018°05'0 0.0
2015-Aug-29 03:16N 59°20' E 018°05'0 0.0
2015-Aug-29 02:25N 59°20' E 018°05'0 0.0
2015-Aug-29 01:28N 59°20' E 018°05'0 0.0
2015-Aug-28 22:31N 59°20' E 018°05'0 0.0
2015-Aug-28 21:31N 59°20' E 018°05'7 1.3
2015-Aug-28 16:20N 59°22' E 018°17'7 8.5
2015-Aug-28 15:33N 59°20' E 018°05'0 0.2
2015-Aug-28 14:27N 59°20' E 018°04'0 0.0
2015-Aug-28 13:24N 59°20' E 018°04'0 0.0
2015-Aug-28 12:33N 59°20' E 018°04'0 0.0
2015-Aug-28 11:33N 59°20' E 018°04'0 0.0
2015-Aug-28 10:33N 59°20' E 018°04'0 0.0
2015-Aug-28 09:33N 59°20' E 018°04'0 0.0
2015-Aug-28 08:33N 59°20' E 018°04'6 5.8
2015-Aug-28 07:33N 59°22' E 018°15'1 0.0
2015-Aug-26 13:33N 59°21' E 018°15'5 5.2
2015-Aug-26 12:32N 59°20' E 018°05'0 0.0
2015-Aug-26 11:32N 59°20' E 018°05'0 0.0
2015-Aug-26 10:32N 59°20' E 018°05'0 0.0
2015-Aug-26 09:32N 59°20' E 018°05'0 0.0
2015-Aug-26 08:29N 59°20' E 018°05'0 0.0
2015-Aug-26 07:32N 59°20' E 018°05'0 0.0
2015-Aug-26 06:32N 59°20' E 018°05'  

Dump ship's entire track history